Archives de nos stations météo

Station météo de Levroux

Altitude de la station : 157 m






Données météorologiques pour le 04/02/2023
Date
Heure
Températures Humidité Point de rosée Vitesse
du vent
Direction Rafales Windchill Pression Pluviométrie
Cumul
Date
Heure
Températures Humidité Point de rosée Vitesse
du vent
Direction Rafales Windchill Pression Pluviométrie
Cumul
04/02/2023 23:168.2 °C90 %6.7 °C3 km/hN6 km/h7.8 1040 hPa0.2 mm
04/02/2023 23:158.2 °C90 %6.7 °C-N14 km/h8.3 1040 hPa0.2 mm
04/02/2023 23:018.3 °C89 %6.7 °C2 km/hN6 km/h8.3 1040 hPa0.2 mm
04/02/2023 23:008.3 °C89 %6.7 °C2 km/hN14 km/h8.3 1040 hPa0.2 mm
04/02/2023 22:468.3 °C88 %6.7 °C2 km/hN6 km/h8.3 1040 hPa0.2 mm
04/02/2023 22:458.4 °C88 %6.7 °C-N14 km/h8.3 1040 hPa0.2 mm
04/02/2023 22:318.4 °C87 %6.7 °C-N6 km/h8.3 1040 hPa0.2 mm
04/02/2023 22:308.4 °C87 %6.7 °C2 km/hN14 km/h8.3 1040 hPa0.2 mm
04/02/2023 22:168.4 °C86 %6.1 °C-N8 km/h8.3 1040 hPa0.2 mm
04/02/2023 22:158.4 °C86 %6.1 °C3 km/hN14 km/h7.8 1040 hPa0.2 mm
04/02/2023 22:018.4 °C84 %6.1 °C-N5 km/h8.3 1040 hPa0.2 mm
04/02/2023 22:008.3 °C84 %5.6 °C2 km/hN14 km/h8.3 1040 hPa0.2 mm
04/02/2023 21:468.2 °C82 %5.6 °C-N2 km/h8.3 1040 hPa0.2 mm
04/02/2023 21:458.2 °C82 %5.6 °C-N14 km/h8.3 1040 hPa0.2 mm
04/02/2023 21:318.3 °C81 %5.0 °C2 km/hN5 km/h8.3 1040 hPa0.2 mm
04/02/2023 21:308.3 °C81 %5.0 °C-N14 km/h8.3 1040 hPa0.2 mm
04/02/2023 21:168.3 °C81 %5.0 °C2 km/hN6 km/h8.3 1040 hPa0.2 mm
04/02/2023 21:158.3 °C82 %5.6 °C3 km/hN14 km/h7.8 1039 hPa0.2 mm
04/02/2023 21:018.2 °C83 %5.6 °C-N5 km/h8.3 1039 hPa0.2 mm
04/02/2023 21:008.2 °C83 %5.6 °C-N14 km/h8.3 1039 hPa0.2 mm
04/02/2023 20:468.3 °C83 %5.6 °C---8.3 1039 hPa0.2 mm
04/02/2023 20:458.2 °C83 %5.6 °C-N14 km/h8.3 1039 hPa0.2 mm
04/02/2023 20:318.3 °C83 %5.6 °C-N2 km/h8.3 1039 hPa0.2 mm
04/02/2023 20:308.3 °C83 %5.6 °C-N14 km/h8.3 1039 hPa0.2 mm
04/02/2023 20:168.3 °C83 %5.6 °C-N2 km/h8.3 1039 hPa0.2 mm
04/02/2023 20:158.3 °C83 %5.6 °C-N14 km/h8.3 1039 hPa0.2 mm
04/02/2023 20:018.3 °C83 %5.6 °C---8.3 1039 hPa0.2 mm
04/02/2023 20:008.4 °C83 %5.6 °C-N14 km/h8.3 1039 hPa0.2 mm
04/02/2023 19:468.4 °C83 %5.6 °C---8.3 1039 hPa0.2 mm
04/02/2023 19:458.4 °C83 %5.6 °C-N14 km/h8.3 1039 hPa0.2 mm
04/02/2023 19:328.6 °C82 %5.6 °C-N2 km/h8.9 1039 hPa0.2 mm
04/02/2023 19:308.6 °C82 %5.6 °C-N14 km/h8.9 1039 hPa0.2 mm
04/02/2023 19:178.7 °C82 %6.1 °C-N2 km/h8.9 1039 hPa0.2 mm
04/02/2023 19:158.7 °C81 %5.6 °C-N14 km/h8.9 1039 hPa0.2 mm
04/02/2023 19:018.7 °C81 %5.6 °C-N3 km/h8.9 1039 hPa0.2 mm
04/02/2023 19:008.7 °C81 %5.6 °C-N14 km/h8.9 1039 hPa0.2 mm
04/02/2023 18:468.8 °C81 %5.6 °C2 km/hN3 km/h8.9 1039 hPa0.2 mm
04/02/2023 18:458.8 °C81 %5.6 °C2 km/hN14 km/h8.9 1039 hPa0.2 mm
04/02/2023 18:318.8 °C81 %5.6 °C2 km/hN3 km/h8.9 1039 hPa0.2 mm
04/02/2023 18:308.8 °C81 %5.6 °C-N14 km/h8.9 1039 hPa0.2 mm
04/02/2023 18:168.9 °C81 %5.6 °C-N3 km/h8.9 1039 hPa0.2 mm
04/02/2023 18:158.9 °C81 %5.6 °C-N14 km/h8.9 1039 hPa0.2 mm
04/02/2023 18:018.9 °C82 %6.1 °C-N3 km/h8.9 1039 hPa0.2 mm
04/02/2023 18:009.0 °C82 %6.1 °C-N10 km/h8.9 1039 hPa0.2 mm
04/02/2023 17:469.1 °C82 %6.1 °C2 km/hN3 km/h8.9 1039 hPa0.2 mm
04/02/2023 17:459.1 °C82 %6.1 °C3 km/hN10 km/h8.3 1039 hPa0.2 mm
04/02/2023 17:319.2 °C80 %6.1 °C2 km/hN14 km/h9.4 1038 hPa0.2 mm
04/02/2023 17:309.3 °C80 %6.1 °C2 km/hN10 km/h9.4 1038 hPa0.2 mm
04/02/2023 17:169.3 °C80 %6.1 °C3 km/hN6 km/h8.9 1038 hPa0.2 mm
04/02/2023 17:159.3 °C80 %6.1 °C-N10 km/h9.4 1038 hPa0.2 mm
04/02/2023 17:019.4 °C82 %6.7 °C3 km/hN3 km/h8.9 1038 hPa0.2 mm
04/02/2023 17:009.4 °C82 %6.7 °C2 km/hN10 km/h9.4 1038 hPa0.2 mm
04/02/2023 16:469.6 °C84 %7.2 °C2 km/hN5 km/h9.4 1038 hPa0.2 mm
04/02/2023 16:459.6 °C84 %7.2 °C-N10 km/h9.4 1038 hPa0.2 mm
04/02/2023 16:309.7 °C85 %7.2 °C3 km/hN5 km/h8.9 1038 hPa0.2 mm
04/02/2023 16:299.7 °C85 %7.2 °C2 km/hN10 km/h10.0 1038 hPa0.2 mm
04/02/2023 16:159.8 °C85 %7.2 °C-N5 km/h10.0 1038 hPa0.2 mm
04/02/2023 16:149.8 °C85 %7.2 °C-N10 km/h10.0 1038 hPa0.2 mm
04/02/2023 16:009.8 °C85 %7.2 °C2 km/hN5 km/h10.0 1038 hPa0.2 mm
04/02/2023 15:599.8 °C85 %7.2 °C-N10 km/h10.0 1038 hPa0.2 mm
04/02/2023 15:459.8 °C85 %7.2 °C-N5 km/h10.0 1038 hPa0.2 mm
04/02/2023 15:449.8 °C85 %7.2 °C-N10 km/h10.0 1038 hPa0.2 mm
04/02/2023 15:309.8 °C85 %7.2 °C3 km/hN5 km/h9.4 1038 hPa0.2 mm
04/02/2023 15:299.8 °C85 %7.2 °C3 km/hN10 km/h9.4 1038 hPa0.2 mm
04/02/2023 15:159.8 °C84 %7.2 °C3 km/hN10 km/h9.4 1038 hPa0.2 mm
04/02/2023 15:149.8 °C84 %7.2 °C2 km/hN10 km/h10.0 1038 hPa0.2 mm
04/02/2023 15:009.9 °C84 %7.2 °C3 km/hN8 km/h9.4 1038 hPa0.2 mm
04/02/2023 14:599.9 °C84 %7.2 °C3 km/hN10 km/h9.4 1038 hPa0.2 mm
04/02/2023 14:459.9 °C86 %7.8 °C-N6 km/h10.0 1038 hPa0.2 mm
04/02/2023 14:449.9 °C85 %7.8 °C3 km/hN10 km/h9.4 1038 hPa0.2 mm
04/02/2023 14:309.7 °C86 %7.8 °C2 km/hN6 km/h10.0 1038 hPa0.2 mm
04/02/2023 14:299.7 °C86 %7.8 °C2 km/hN10 km/h10.0 1038 hPa0.2 mm
04/02/2023 14:159.5 °C88 %7.8 °C2 km/hN5 km/h9.4 1038 hPa0.2 mm
04/02/2023 14:149.5 °C88 %7.8 °C-N10 km/h9.4 1038 hPa0.2 mm
04/02/2023 14:009.4 °C88 %7.8 °C2 km/hN6 km/h9.4 1038 hPa0.2 mm
04/02/2023 13:599.4 °C87 %7.2 °C-N10 km/h9.4 1038 hPa0.2 mm
04/02/2023 13:459.8 °C86 %7.8 °C2 km/hN6 km/h10.0 1038 hPa0.2 mm
04/02/2023 13:449.7 °C86 %7.8 °C2 km/hN10 km/h10.0 1038 hPa0.2 mm
04/02/2023 13:309.9 °C85 %7.8 °C2 km/hN6 km/h10.0 1038 hPa0.2 mm
04/02/2023 13:2910.0 °C84 %7.2 °C3 km/hN10 km/h9.4 1038 hPa0.2 mm
04/02/2023 13:1510.1 °C85 %7.8 °C2 km/hN6 km/h10.0 1038 hPa0.2 mm
04/02/2023 13:1410.1 °C84 %7.8 °C-N10 km/h10.0 1038 hPa0.2 mm
04/02/2023 13:0010.0 °C86 %7.8 °C-N6 km/h10.0 1038 hPa0.2 mm
04/02/2023 12:5910.0 °C86 %7.8 °C3 km/hN10 km/h9.4 1038 hPa0.2 mm
04/02/2023 12:459.6 °C87 %7.8 °C2 km/hN6 km/h9.4 1038 hPa0.2 mm
04/02/2023 12:449.6 °C88 %7.8 °C3 km/hN10 km/h8.9 1038 hPa0.2 mm
04/02/2023 12:309.3 °C89 %7.8 °C2 km/hN6 km/h9.4 1038 hPa0.2 mm
04/02/2023 12:299.3 °C89 %7.8 °C3 km/hN6 km/h8.9 1038 hPa0.2 mm
04/02/2023 12:159.0 °C90 %7.8 °C-N6 km/h8.9 1039 hPa0.2 mm
04/02/2023 12:149.0 °C91 %7.8 °C6 km/hN6 km/h7.8 1038 hPa0.2 mm
04/02/2023 12:008.8 °C92 %7.8 °C2 km/hN5 km/h8.9 1039 hPa0.2 mm
04/02/2023 11:598.8 °C92 %7.8 °C2 km/hN6 km/h8.9 1039 hPa0.2 mm
04/02/2023 11:458.4 °C92 %7.2 °C-N5 km/h8.3 1039 hPa0.2 mm
04/02/2023 11:448.4 °C92 %7.2 °C2 km/hN6 km/h8.3 1039 hPa0.2 mm
04/02/2023 11:308.3 °C93 %7.2 °C-N6 km/h8.3 1039 hPa-
04/02/2023 11:167.9 °C94 %7.2 °C2 km/hN5 km/h7.8 1039 hPa-
04/02/2023 11:157.9 °C94 %7.2 °C2 km/hN6 km/h7.8 1039 hPa-
04/02/2023 11:017.7 °C94 %6.7 °C2 km/hN5 km/h7.8 1039 hPa-
04/02/2023 11:007.7 °C94 %6.7 °C2 km/hN6 km/h7.8 1039 hPa-
04/02/2023 10:467.6 °C93 %6.7 °C2 km/hN5 km/h7.8 1039 hPa-
04/02/2023 10:457.6 °C93 %6.7 °C2 km/hN6 km/h7.8 1039 hPa-
04/02/2023 10:317.6 °C93 %6.7 °C-N3 km/h7.8 1038 hPa-
04/02/2023 10:307.6 °C93 %6.7 °C2 km/hN6 km/h7.8 1039 hPa-
04/02/2023 10:167.4 °C92 %6.1 °C-N2 km/h7.2 1038 hPa-
04/02/2023 10:157.5 °C92 %6.1 °C-N6 km/h7.8 1038 hPa-
04/02/2023 10:017.5 °C91 %6.1 °C-N3 km/h7.8 1038 hPa-
04/02/2023 10:007.4 °C91 %6.1 °C-N6 km/h7.2 1038 hPa-
04/02/2023 09:467.5 °C91 %6.1 °C2 km/hN3 km/h7.8 1038 hPa-
04/02/2023 09:457.5 °C91 %6.1 °C-N6 km/h7.8 1038 hPa-
04/02/2023 09:317.3 °C91 %6.1 °C3 km/hN6 km/h6.7 1038 hPa-
04/02/2023 09:307.2 °C91 %6.1 °C2 km/hN6 km/h7.2 1038 hPa-
04/02/2023 09:166.7 °C92 %5.6 °C2 km/hN2 km/h6.7 1038 hPa-
04/02/2023 09:156.7 °C92 %5.6 °C-N5 km/h6.7 1038 hPa-
04/02/2023 09:016.4 °C92 %5.0 °C---6.7 1038 hPa-
04/02/2023 09:006.3 °C92 %5.0 °C-N5 km/h6.1 1038 hPa-
04/02/2023 08:466.3 °C91 %5.0 °C-N2 km/h6.1 1038 hPa-
04/02/2023 08:456.3 °C91 %5.0 °C-N5 km/h6.1 1038 hPa-
04/02/2023 08:316.2 °C91 %5.0 °C---6.1 1038 hPa-
04/02/2023 08:306.3 °C91 %5.0 °C-N5 km/h6.1 1038 hPa-
04/02/2023 08:166.3 °C90 %5.0 °C---6.1 1038 hPa-
04/02/2023 08:156.3 °C90 %5.0 °C-N5 km/h6.1 1038 hPa-
04/02/2023 08:016.3 °C90 %5.0 °C---6.1 1037 hPa-
04/02/2023 08:006.3 °C90 %5.0 °C-N5 km/h6.1 1038 hPa-
04/02/2023 07:466.3 °C90 %5.0 °C---6.1 1037 hPa-
04/02/2023 07:456.3 °C90 %5.0 °C-N5 km/h6.1 1037 hPa-
04/02/2023 07:306.3 °C90 %5.0 °C---6.1 1037 hPa-
04/02/2023 07:296.3 °C90 %5.0 °C-N5 km/h6.1 1037 hPa-
04/02/2023 07:156.3 °C90 %5.0 °C---6.1 1037 hPa-
04/02/2023 07:146.3 °C90 %5.0 °C-N5 km/h6.1 1037 hPa-
04/02/2023 07:006.3 °C90 %5.0 °C---6.1 1037 hPa-
04/02/2023 06:596.2 °C90 %5.0 °C-N5 km/h6.1 1037 hPa-
04/02/2023 06:456.2 °C90 %5.0 °C---6.1 1037 hPa-
04/02/2023 06:446.2 °C90 %5.0 °C-N5 km/h6.1 1037 hPa-
04/02/2023 06:306.2 °C89 %4.4 °C---6.1 1037 hPa-
04/02/2023 06:296.3 °C89 %4.4 °C-N5 km/h6.1 1037 hPa-
04/02/2023 06:156.3 °C89 %4.4 °C---6.1 1037 hPa-
04/02/2023 06:146.3 °C89 %4.4 °C-N5 km/h6.1 1037 hPa-
04/02/2023 06:006.3 °C89 %4.4 °C---6.1 1037 hPa-
04/02/2023 05:596.3 °C89 %4.4 °C-N5 km/h6.1 1037 hPa-
04/02/2023 05:456.2 °C89 %4.4 °C---6.1 1037 hPa-
04/02/2023 05:446.3 °C89 %4.4 °C-N5 km/h6.1 1037 hPa-
04/02/2023 05:306.3 °C89 %4.4 °C---6.1 1037 hPa-
04/02/2023 05:296.3 °C89 %4.4 °C-N5 km/h6.1 1037 hPa-
04/02/2023 05:156.3 °C89 %4.4 °C---6.1 1037 hPa-
04/02/2023 05:146.3 °C89 %4.4 °C-N5 km/h6.1 1037 hPa-
04/02/2023 05:006.3 °C89 %4.4 °C---6.1 1037 hPa-
04/02/2023 04:596.3 °C88 %4.4 °C-N5 km/h6.1 1037 hPa-
04/02/2023 04:456.3 °C88 %4.4 °C-N5 km/h6.1 1037 hPa-
04/02/2023 04:306.3 °C88 %4.4 °C---6.1 1037 hPa-
04/02/2023 04:286.3 °C88 %4.4 °C-N5 km/h6.1 1037 hPa-
04/02/2023 04:156.3 °C88 %4.4 °C---6.1 1037 hPa-
04/02/2023 04:146.4 °C88 %4.4 °C-N5 km/h6.7 1037 hPa-
04/02/2023 04:006.3 °C88 %4.4 °C---6.1 1037 hPa-
04/02/2023 03:596.4 °C88 %4.4 °C-N5 km/h6.7 1037 hPa-
04/02/2023 03:456.3 °C88 %4.4 °C-N5 km/h6.1 1037 hPa-
04/02/2023 03:306.4 °C88 %4.4 °C---6.7 1037 hPa-
04/02/2023 03:296.4 °C88 %4.4 °C-N5 km/h6.7 1037 hPa-
04/02/2023 03:156.4 °C87 %4.4 °C-N5 km/h6.7 1037 hPa-
04/02/2023 03:006.4 °C87 %4.4 °C---6.7 1037 hPa-
04/02/2023 02:596.5 °C87 %4.4 °C-N5 km/h6.7 1037 hPa-
04/02/2023 02:456.5 °C86 %4.4 °C-N5 km/h6.7 1037 hPa-
04/02/2023 02:306.5 °C86 %4.4 °C-N5 km/h6.7 1037 hPa-
04/02/2023 02:166.6 °C86 %4.4 °C---6.7 1037 hPa-
04/02/2023 02:156.6 °C86 %4.4 °C-N5 km/h6.7 1037 hPa-
04/02/2023 02:016.6 °C86 %4.4 °C---6.7 1037 hPa-
04/02/2023 02:006.6 °C85 %4.4 °C-N5 km/h6.7 1037 hPa-
04/02/2023 01:466.7 °C85 %4.4 °C---6.7 1037 hPa-
04/02/2023 01:456.7 °C85 %4.4 °C-N5 km/h6.7 1037 hPa-
04/02/2023 01:326.7 °C85 %4.4 °C-N2 km/h6.7 1037 hPa-
04/02/2023 01:306.7 °C85 %4.4 °C-N5 km/h6.7 1037 hPa-
04/02/2023 01:176.8 °C85 %4.4 °C2 km/hN2 km/h6.7 1037 hPa-
04/02/2023 01:156.8 °C85 %4.4 °C-N5 km/h6.7 1038 hPa-
04/02/2023 01:026.8 °C84 %4.4 °C2 km/hN5 km/h6.7 1038 hPa-
04/02/2023 01:006.8 °C84 %4.4 °C3 km/hN5 km/h6.1 1038 hPa-
04/02/2023 00:476.8 °C84 %4.4 °C-N2 km/h6.7 1038 hPa-
04/02/2023 00:456.8 °C84 %4.4 °C-N5 km/h6.7 1038 hPa-
04/02/2023 00:316.9 °C84 %4.4 °C-N3 km/h6.7 1038 hPa-
04/02/2023 00:306.8 °C84 %4.4 °C-N5 km/h6.7 1038 hPa-
04/02/2023 00:166.9 °C84 %4.4 °C3 km/hN5 km/h6.1 1038 hPa-
04/02/2023 00:156.9 °C84 %4.4 °C-N5 km/h6.7 1038 hPa-
04/02/2023 00:016.9 °C84 %4.4 °C3 km/hN5 km/h6.1 1038 hPa-
04/02/2023 00:006.9 °C84 %4.4 °C5 km/hN5 km/h6.1 1038 hPa-


Minima :

Température : 6.2 °C
Humidité : 80 %
Point de rosée : 4.4 °C
Vent moyen : 2 km/h
Windchill : 6.1
Pression atm. : 1037 hPa
Maxima :

Température : 10.1 °C
Humidité : 94 %
Point de rosée : 7.8 °C
Vent moyen : 6 km/h
Windchill : 10.0
Pression atm. : 1040 hPa
Rafales max : 14 km/h
Cumul de pluie sur 24H : 0.2 mm

Levroux est une commune du département Indre (36).
La station météorologique du réseau de l'association la plus proche de Levroux est celle de Ménétréols-sous-Vatan


Descriptif du réseau de station de l'association Météo Centre (R.S.M.C)

Carte de la région Centre - Val de Loire

Carte de la région Centre - Val de Loire couvert par notre réseau météorologique

L'association météo centre et ses bénévoles développent et gère ce réseau. Il regroupe des stations météorologiques semi-professionnelles de marque Davis Instruments et est notamment composé de Davis Vantage Pro 2 mais aussi de Davis Vantage Vue.

Ce sont des passionnés de météorologie qui, avec ou sans l'aide de l'association, implantent ce type de matériel depuis la création de notre organisation en 2011.

Les données de chaque station de réseau sont hébergées sur le serveur de l'association. Elles sont ensuite mises gratuitement à votre disposition sur cette page, mais également sur la carte d'observation météorologique du Centre - Val de Loire.

Certaines stations sont installées en dehors de notre région. Elles permettent d'avoir une vision plus large des conditions météorologiques autour de notre territoire, retrouvez ici la carte de notre réseau de station Météo Centre (R.S.M.C).

Notre réseau surveille donc en permanence les conditions météo dans la région Centre - Val de Loire. Si vous possédez du matériel météo de marque Davis, faite comme plus de 60 autres passionnés, contactez nous pour nous rejoindre.


Contenu des archives météo de notre réseau

Chaque station météo du réseau émet les données suivantes toutes les 15 à 30 minutes :

Station météorologique Davis Vantage Pro 2

Exemple de station météorologique du réseau de station Météo Centre

  • la température extérieure
  • l'humidité
  • le point de rosée
  • la vitesse du vent
  • la direction du vent
  • les rafales
  • le windchill (refroidissement éolien)
  • la pression
  • le cumul de pluie

Nous archivons ces informations météorologiques et nous les mettons gratuitement à disposition du grand public. Nous les partageons également avec des professionnels, des collectivités voire des établissements publics quand ils en expriment le besoin.

Toutefois, les archives des stations ne sont pas toutes aussi anciennes puisque les installations se déroulent année après année. Retrouvez ces archives météo pour la région Centre - Val de Loire en cliquant ici.

Merci à tous les propriétaires de stations météorologiques de partager leurs données mais aussi de les rendre accessibles au plus grand nombre.